createdAt,value
2023-02-22T00:00:48.544Z,34.45
2023-02-22T00:06:06.173Z,34.65
2023-02-22T00:11:21.878Z,25.30
2023-02-22T00:16:37.390Z,30.60
2023-02-22T00:21:53.788Z,38.13
2023-02-22T00:27:09.917Z,39.22
2023-02-22T00:32:25.881Z,32.25
2023-02-22T00:37:44.365Z,45.42
2023-02-22T00:43:02.487Z,34.75
2023-02-22T00:48:18.489Z,31.30
2023-02-22T00:53:34.368Z,32.33
2023-02-22T00:58:50.011Z,30.75
2023-02-22T01:04:07.009Z,32.38
2023-02-22T01:09:22.884Z,30.40
2023-02-22T01:14:40.238Z,29.80
2023-02-22T01:19:56.356Z,32.42
2023-02-22T01:25:13.324Z,34.08
2023-02-22T01:30:33.080Z,41.95
2023-02-22T01:35:50.985Z,31.95
2023-02-22T01:41:06.766Z,29.60
2023-02-22T01:46:27.998Z,36.60
2023-02-22T01:51:48.909Z,49.70
2023-02-22T01:57:12.381Z,56.83
2023-02-22T02:02:28.691Z,44.35
2023-02-22T02:07:46.891Z,52.25
2023-02-22T02:13:04.185Z,43.30
2023-02-22T02:18:20.278Z,32.92
2023-02-22T02:23:55.441Z,35.88
2023-02-22T02:29:34.146Z,39.65
2023-02-22T02:35:22.697Z,32.53
2023-02-22T02:40:44.022Z,32.15
2023-02-22T02:46:09.833Z,38.47
2023-02-22T02:51:30.657Z,33.22
2023-02-22T02:56:46.773Z,31.67
2023-02-22T03:02:36.323Z,31.88
2023-02-22T03:08:13.772Z,26.70
2023-02-22T03:13:41.501Z,39.17
2023-02-22T03:19:09.172Z,30.40
2023-02-22T03:24:37.577Z,26.90
2023-02-22T03:29:57.387Z,32.22
2023-02-22T03:35:18.427Z,23.42
2023-02-22T03:40:43.746Z,21.73
2023-02-22T03:46:01.059Z,23.63
2023-02-22T03:51:19.185Z,26.05
2023-02-22T03:56:47.342Z,26.65
2023-02-22T04:02:03.458Z,30.30
2023-02-22T04:07:19.942Z,28.00
2023-02-22T04:12:36.895Z,27.88
2023-02-22T04:17:52.590Z,31.90
2023-02-22T04:23:08.013Z,24.27
2023-02-22T04:28:23.628Z,24.55
2023-02-22T04:33:39.274Z,26.75
2023-02-22T04:38:55.290Z,21.52
2023-02-22T04:44:10.904Z,24.00
2023-02-22T04:49:26.805Z,23.67
2023-02-22T04:54:42.957Z,20.45
2023-02-22T04:59:58.683Z,22.30
2023-02-22T05:05:19.442Z,34.30
2023-02-22T05:10:35.298Z,28.33
2023-02-22T05:15:51.263Z,21.35
2023-02-22T05:21:07.222Z,37.70
2023-02-22T05:26:23.735Z,23.77
2023-02-22T05:31:39.812Z,24.50
2023-02-22T05:36:55.541Z,22.40
2023-02-22T05:42:11.442Z,18.92
2023-02-22T05:47:28.222Z,27.17
2023-02-22T05:52:44.194Z,19.38
2023-02-22T05:57:59.854Z,25.65
2023-02-22T06:03:15.922Z,27.25
2023-02-22T06:08:31.977Z,27.88
2023-02-22T06:13:52.764Z,25.90
2023-02-22T06:19:08.291Z,29.67
2023-02-22T06:24:24.262Z,23.13
2023-02-22T06:29:44.783Z,27.10
2023-02-22T06:35:00.348Z,32.30
2023-02-22T06:40:16.193Z,30.60
2023-02-22T06:45:31.881Z,30.67
2023-02-22T06:50:47.957Z,28.92
2023-02-22T06:56:03.991Z,29.73
2023-02-22T07:01:19.804Z,21.38
2023-02-22T07:06:36.488Z,21.67
2023-02-22T07:11:51.932Z,21.00
2023-02-22T07:17:07.769Z,28.90
2023-02-22T07:22:23.096Z,28.13
2023-02-22T07:27:40.307Z,27.48
2023-02-22T07:32:56.579Z,16.02
2023-02-22T07:38:12.895Z,17.67
2023-02-22T07:43:29.422Z,23.08
2023-02-22T07:48:45.290Z,17.33
2023-02-22T07:54:01.209Z,23.55
2023-02-22T07:59:17.059Z,28.95
2023-02-22T08:04:32.791Z,20.33
2023-02-22T08:09:47.963Z,22.80
2023-02-22T08:15:05.611Z,33.00
2023-02-22T08:20:21.962Z,17.17
2023-02-22T08:25:37.753Z,23.00
2023-02-22T08:30:53.754Z,15.80
2023-02-22T08:36:09.903Z,19.38
2023-02-22T08:41:25.491Z,19.52
2023-02-22T08:46:40.818Z,18.90
2023-02-22T08:51:56.699Z,17.10
2023-02-22T08:57:13.062Z,19.67
2023-02-22T09:02:28.870Z,14.05
2023-02-22T09:07:45.438Z,20.52
2023-02-22T09:13:01.748Z,12.77
2023-02-22T09:18:18.464Z,17.50
2023-02-22T09:23:34.894Z,17.23
2023-02-22T09:28:51.140Z,20.38
2023-02-22T09:34:14.426Z,27.67
2023-02-22T09:39:30.526Z,16.40
2023-02-22T09:44:58.333Z,15.82
2023-02-22T09:50:17.689Z,17.40
2023-02-22T09:55:45.520Z,18.67
2023-02-22T10:01:33.358Z,14.00
2023-02-22T10:07:12.044Z,19.08
2023-02-22T10:12:54.017Z,10.32
2023-02-22T10:18:09.390Z,11.20
2023-02-22T10:23:31.455Z,11.15
2023-02-22T10:29:07.342Z,11.38
2023-02-22T10:34:27.009Z,17.08
2023-02-22T10:39:44.659Z,9.70
2023-02-22T10:45:00.819Z,12.95
2023-02-22T10:50:18.303Z,12.27
2023-02-22T10:55:34.864Z,15.68
2023-02-22T11:00:52.104Z,11.20
2023-02-22T11:06:21.888Z,10.02
2023-02-22T11:11:40.289Z,12.98
2023-02-22T11:16:58.166Z,21.60
2023-02-22T11:22:43.342Z,12.60
2023-02-22T11:28:31.189Z,25.13
2023-02-22T11:33:59.724Z,15.70
2023-02-22T11:39:27.712Z,13.50
2023-02-22T11:44:45.351Z,14.32
2023-02-22T11:50:02.457Z,8.52
2023-02-22T11:55:43.303Z,11.45
2023-02-22T12:01:17.546Z,16.70
2023-02-22T12:06:42.402Z,17.92
2023-02-22T12:12:28.238Z,11.05
2023-02-22T12:18:19.049Z,10.95
2023-02-22T12:23:45.203Z,12.10
2023-02-22T12:29:14.705Z,11.20
2023-02-22T12:34:38.432Z,10.48
2023-02-22T12:40:08.603Z,20.17
2023-02-22T12:45:40.078Z,15.70
2023-02-22T12:51:20.874Z,17.58
2023-02-22T12:56:53.242Z,23.83
2023-02-22T13:02:20.522Z,16.38
2023-02-22T13:08:02.909Z,11.18
2023-02-22T13:13:24.020Z,16.45
2023-02-22T13:19:07.496Z,14.38
2023-02-22T13:24:30.525Z,15.32
2023-02-22T13:29:52.273Z,9.23
2023-02-22T13:35:57.107Z,11.23
2023-02-22T13:41:21.477Z,14.85
2023-02-22T13:46:50.900Z,13.15
2023-02-22T13:52:14.772Z,16.83
2023-02-22T13:57:48.404Z,14.35
2023-02-22T14:03:16.012Z,14.00
2023-02-22T14:08:31.926Z,17.17
2023-02-22T14:14:00.986Z,14.15
2023-02-22T14:19:23.870Z,17.20
2023-02-22T14:24:48.386Z,10.93
2023-02-22T14:30:05.864Z,15.10
2023-02-22T14:35:28.793Z,10.32
2023-02-22T14:40:51.619Z,10.02
2023-02-22T14:51:53.518Z,10.73
2023-02-22T14:57:29.821Z,30.35
2023-02-22T15:02:48.474Z,9.60
2023-02-22T15:08:08.044Z,11.88
2023-02-22T15:13:26.894Z,13.65
2023-02-22T15:18:46.463Z,10.02
2023-02-22T15:24:08.256Z,18.38
2023-02-22T15:29:29.669Z,11.43
2023-02-22T15:34:45.606Z,5.45
2023-02-22T15:40:14.748Z,15.52
2023-02-22T15:45:32.723Z,10.05
2023-02-22T15:51:14.172Z,21.92
2023-02-22T15:56:35.209Z,13.25
2023-02-22T16:01:54.164Z,9.95
2023-02-22T16:07:17.302Z,8.15
2023-02-22T16:12:33.167Z,12.55
2023-02-22T16:18:01.392Z,14.27
2023-02-22T16:23:26.525Z,9.25
2023-02-22T16:28:56.274Z,10.95
2023-02-22T16:34:15.301Z,18.30
2023-02-22T16:39:36.158Z,13.88
2023-02-22T16:50:08.450Z,36.28
2023-02-22T16:55:25.044Z,20.33
2023-02-22T17:00:42.506Z,23.30
2023-02-22T17:05:58.080Z,13.43
2023-02-22T17:11:15.064Z,23.50
2023-02-22T17:16:31.296Z,15.63
2023-02-22T17:21:48.185Z,13.02
2023-02-22T17:27:04.107Z,18.17
2023-02-22T17:32:19.849Z,18.38
2023-02-22T17:37:35.877Z,21.30
2023-02-22T17:42:55.244Z,21.95
2023-02-22T17:48:10.896Z,24.38
2023-02-22T17:53:26.910Z,24.48
2023-02-22T17:58:42.949Z,49.10
2023-02-22T18:04:00.992Z,62.35
2023-02-22T18:09:17.954Z,54.13
2023-02-22T18:14:34.465Z,50.95
2023-02-22T18:19:50.168Z,43.38
2023-02-22T18:25:06.538Z,45.08
2023-02-22T18:30:22.331Z,38.97
2023-02-22T18:35:48.426Z,31.10
2023-02-22T18:41:07.487Z,32.67
2023-02-22T18:46:24.229Z,29.05
2023-02-22T18:51:43.674Z,28.13
2023-02-22T18:57:07.011Z,36.75
2023-02-22T19:02:22.984Z,28.95
2023-02-22T19:07:39.709Z,19.23
2023-02-22T19:12:55.313Z,33.42
2023-02-22T19:18:11.380Z,32.42
2023-02-22T19:23:28.546Z,40.05
2023-02-22T19:28:45.835Z,48.88
2023-02-22T19:34:09.321Z,31.85
2023-02-22T19:39:26.193Z,29.77
2023-02-22T19:44:42.319Z,37.10
2023-02-22T19:49:59.782Z,27.50
2023-02-22T19:55:16.247Z,36.80
2023-02-22T20:00:35.698Z,22.83
2023-02-22T20:05:51.174Z,29.88
2023-02-22T20:11:10.890Z,28.25
2023-02-22T20:16:26.987Z,26.63
2023-02-22T20:21:42.894Z,30.75
2023-02-22T20:26:59.380Z,61.08
2023-02-22T20:32:16.744Z,47.03
2023-02-22T20:37:34.636Z,55.75
2023-02-22T20:42:50.171Z,44.58
2023-02-22T20:48:06.077Z,42.97
2023-02-22T20:53:21.948Z,37.80
2023-02-22T20:58:37.443Z,43.33
2023-02-22T21:03:53.049Z,39.63
2023-02-22T21:09:14.761Z,43.92
2023-02-22T21:14:32.901Z,48.38
2023-02-22T21:19:48.632Z,33.65
2023-02-22T21:25:04.984Z,33.22
2023-02-22T21:30:20.857Z,33.15
2023-02-22T21:35:43.082Z,38.03
2023-02-22T21:40:58.762Z,41.53
2023-02-22T21:46:14.244Z,45.72
2023-02-22T21:51:32.949Z,44.85
2023-02-22T21:56:50.026Z,37.80
2023-02-22T22:02:06.331Z,51.33
2023-02-22T22:07:23.030Z,40.25
2023-02-22T22:12:42.154Z,39.05
2023-02-22T22:18:05.706Z,38.17
2023-02-22T22:23:21.340Z,26.13
2023-02-22T22:28:42.584Z,26.45
2023-02-22T22:33:58.426Z,28.92
2023-02-22T22:39:13.805Z,30.98
2023-02-22T22:44:33.160Z,27.85
2023-02-22T22:49:50.625Z,26.58
2023-02-22T22:55:12.250Z,28.60
2023-02-22T23:00:34.861Z,31.70
2023-02-22T23:05:50.516Z,25.20
2023-02-22T23:11:09.376Z,31.70
2023-02-22T23:16:25.545Z,25.48
2023-02-22T23:21:43.809Z,33.33
2023-02-22T23:27:02.291Z,28.70
2023-02-22T23:32:18.330Z,31.10
2023-02-22T23:37:35.747Z,25.55
2023-02-22T23:42:56.187Z,26.25
2023-02-22T23:48:13.090Z,20.30
2023-02-22T23:53:30.283Z,19.38
2023-02-22T23:58:50.486Z,23.67
